sensor_id;sensor_type;location;lat;lon;timestamp;P1;durP1;ratioP1;P2;durP2;ratioP2
14486;SDS011;7329;50.866;4.366;2022-08-19T00:00:01;5.72;;;5.32;;
14486;SDS011;7329;50.866;4.366;2022-08-19T00:02:06;5.30;;;4.80;;
14486;SDS011;7329;50.866;4.366;2022-08-19T00:04:10;5.53;;;5.03;;
14486;SDS011;7329;50.866;4.366;2022-08-19T00:06:14;5.13;;;4.72;;
14486;SDS011;7329;50.866;4.366;2022-08-19T00:08:17;5.80;;;5.30;;
14486;SDS011;7329;50.866;4.366;2022-08-19T00:10:20;5.50;;;5.10;;
14486;SDS011;7329;50.866;4.366;2022-08-19T00:12:24;5.40;;;5.00;;
14486;SDS011;7329;50.866;4.366;2022-08-19T00:14:27;5.72;;;5.25;;
14486;SDS011;7329;50.866;4.366;2022-08-19T00:16:31;6.18;;;5.60;;
14486;SDS011;7329;50.866;4.366;2022-08-19T00:18:35;6.32;;;5.82;;
14486;SDS011;7329;50.866;4.366;2022-08-19T00:20:37;5.90;;;5.45;;
14486;SDS011;7329;50.866;4.366;2022-08-19T00:22:40;5.55;;;5.07;;
14486;SDS011;7329;50.866;4.366;2022-08-19T00:24:43;5.85;;;5.35;;
14486;SDS011;7329;50.866;4.366;2022-08-19T00:26:45;6.45;;;5.90;;
14486;SDS011;7329;50.866;4.366;2022-08-19T00:28:48;5.90;;;5.40;;
14486;SDS011;7329;50.866;4.366;2022-08-19T00:30:50;6.00;;;5.50;;
14486;SDS011;7329;50.866;4.366;2022-08-19T00:32:53;5.85;;;5.35;;
14486;SDS011;7329;50.866;4.366;2022-08-19T00:34:58;6.35;;;5.75;;
14486;SDS011;7329;50.866;4.366;2022-08-19T00:37:00;5.78;;;5.28;;
14486;SDS011;7329;50.866;4.366;2022-08-19T00:39:03;5.93;;;5.43;;
14486;SDS011;7329;50.866;4.366;2022-08-19T00:41:05;6.38;;;5.88;;
14486;SDS011;7329;50.866;4.366;2022-08-19T00:43:09;6.07;;;5.57;;
14486;SDS011;7329;50.866;4.366;2022-08-19T00:45:14;6.30;;;5.85;;
14486;SDS011;7329;50.866;4.366;2022-08-19T00:47:19;6.75;;;6.15;;
14486;SDS011;7329;50.866;4.366;2022-08-19T00:49:23;6.68;;;6.07;;
14486;SDS011;7329;50.866;4.366;2022-08-19T00:51:30;6.22;;;5.72;;
14486;SDS011;7329;50.866;4.366;2022-08-19T00:53:34;7.35;;;6.43;;
14486;SDS011;7329;50.866;4.366;2022-08-19T00:55:37;6.45;;;5.95;;
14486;SDS011;7329;50.866;4.366;2022-08-19T00:57:42;5.95;;;5.45;;
14486;SDS011;7329;50.866;4.366;2022-08-19T00:59:55;6.07;;;5.57;;
14486;SDS011;7329;50.866;4.366;2022-08-19T01:01:59;6.38;;;5.88;;
14486;SDS011;7329;50.866;4.366;2022-08-19T01:04:02;6.10;;;5.60;;
14486;SDS011;7329;50.866;4.366;2022-08-19T01:06:04;6.85;;;6.35;;
14486;SDS011;7329;50.866;4.366;2022-08-19T01:08:08;6.28;;;5.78;;
14486;SDS011;7329;50.866;4.366;2022-08-19T01:10:12;6.40;;;5.90;;
14486;SDS011;7329;50.866;4.366;2022-08-19T01:12:19;6.63;;;6.03;;
14486;SDS011;7329;50.866;4.366;2022-08-19T01:14:22;6.20;;;5.70;;
14486;SDS011;7329;50.866;4.366;2022-08-19T01:16:26;7.05;;;6.45;;
14486;SDS011;7329;50.866;4.366;2022-08-19T01:18:30;7.05;;;6.38;;
14486;SDS011;7329;50.866;4.366;2022-08-19T01:20:36;6.97;;;6.38;;
14486;SDS011;7329;50.866;4.366;2022-08-19T01:22:42;7.10;;;6.50;;
14486;SDS011;7329;50.866;4.366;2022-08-19T01:24:46;7.00;;;6.35;;
14486;SDS011;7329;50.866;4.366;2022-08-19T01:26:48;6.43;;;5.82;;
14486;SDS011;7329;50.866;4.366;2022-08-19T01:28:52;6.65;;;6.15;;
14486;SDS011;7329;50.866;4.366;2022-08-19T01:30:57;7.13;;;6.47;;
14486;SDS011;7329;50.866;4.366;2022-08-19T01:33:00;6.30;;;5.80;;
14486;SDS011;7329;50.866;4.366;2022-08-19T01:35:05;6.88;;;6.28;;
14486;SDS011;7329;50.866;4.366;2022-08-19T01:37:09;6.38;;;5.80;;
14486;SDS011;7329;50.866;4.366;2022-08-19T01:39:15;6.75;;;6.25;;
14486;SDS011;7329;50.866;4.366;2022-08-19T01:41:19;7.20;;;6.60;;
14486;SDS011;7329;50.866;4.366;2022-08-19T01:43:23;7.20;;;6.60;;
14486;SDS011;7329;50.866;4.366;2022-08-19T01:45:27;7.10;;;6.50;;
14486;SDS011;7329;50.866;4.366;2022-08-19T01:47:32;6.85;;;6.22;;
14486;SDS011;7329;50.866;4.366;2022-08-19T01:49:35;7.60;;;7.00;;
14486;SDS011;7329;50.866;4.366;2022-08-19T01:51:38;6.50;;;6.00;;
14486;SDS011;7329;50.866;4.366;2022-08-19T01:53:40;6.45;;;5.95;;
14486;SDS011;7329;50.866;4.366;2022-08-19T01:55:44;7.00;;;6.50;;
14486;SDS011;7329;50.866;4.366;2022-08-19T01:57:48;6.78;;;6.25;;
14486;SDS011;7329;50.866;4.366;2022-08-19T01:59:53;7.38;;;6.68;;
14486;SDS011;7329;50.866;4.366;2022-08-19T02:01:55;7.07;;;6.47;;
14486;SDS011;7329;50.866;4.366;2022-08-19T02:03:57;7.25;;;6.65;;
14486;SDS011;7329;50.866;4.366;2022-08-19T02:06:01;6.82;;;6.32;;
14486;SDS011;7329;50.866;4.366;2022-08-19T02:08:05;7.30;;;6.70;;
14486;SDS011;7329;50.866;4.366;2022-08-19T02:10:10;6.60;;;6.10;;
14486;SDS011;7329;50.866;4.366;2022-08-19T02:12:16;6.97;;;6.43;;
14486;SDS011;7329;50.866;4.366;2022-08-19T02:14:19;7.10;;;6.53;;
14486;SDS011;7329;50.866;4.366;2022-08-19T02:16:21;7.18;;;6.57;;
14486;SDS011;7329;50.866;4.366;2022-08-19T02:18:24;6.95;;;6.28;;
14486;SDS011;7329;50.866;4.366;2022-08-19T02:20:26;6.80;;;6.22;;
14486;SDS011;7329;50.866;4.366;2022-08-19T02:22:29;6.78;;;6.18;;
14486;SDS011;7329;50.866;4.366;2022-08-19T02:24:31;7.03;;;6.43;;
14486;SDS011;7329;50.866;4.366;2022-08-19T02:26:34;7.18;;;6.57;;
14486;SDS011;7329;50.866;4.366;2022-08-19T02:28:38;7.10;;;6.50;;
14486;SDS011;7329;50.866;4.366;2022-08-19T02:30:41;7.20;;;6.57;;
14486;SDS011;7329;50.866;4.366;2022-08-19T02:32:43;7.03;;;6.43;;
14486;SDS011;7329;50.866;4.366;2022-08-19T02:34:46;7.05;;;6.43;;
14486;SDS011;7329;50.866;4.366;2022-08-19T02:36:48;6.82;;;6.32;;
14486;SDS011;7329;50.866;4.366;2022-08-19T02:38:50;7.43;;;6.75;;
14486;SDS011;7329;50.866;4.366;2022-08-19T02:40:52;6.68;;;6.18;;
14486;SDS011;7329;50.866;4.366;2022-08-19T02:42:56;7.15;;;6.65;;
14486;SDS011;7329;50.866;4.366;2022-08-19T02:45:00;6.80;;;6.30;;
14486;SDS011;7329;50.866;4.366;2022-08-19T02:47:03;7.28;;;6.68;;
14486;SDS011;7329;50.866;4.366;2022-08-19T02:49:06;7.72;;;7.03;;
14486;SDS011;7329;50.866;4.366;2022-08-19T02:51:09;6.85;;;6.25;;
14486;SDS011;7329;50.866;4.366;2022-08-19T02:53:18;7.00;;;6.40;;
14486;SDS011;7329;50.866;4.366;2022-08-19T02:55:22;7.43;;;6.82;;
14486;SDS011;7329;50.866;4.366;2022-08-19T02:57:24;7.20;;;6.60;;
14486;SDS011;7329;50.866;4.366;2022-08-19T02:59:29;7.47;;;6.78;;
14486;SDS011;7329;50.866;4.366;2022-08-19T03:01:33;7.03;;;6.30;;
14486;SDS011;7329;50.866;4.366;2022-08-19T03:03:36;7.03;;;6.35;;
14486;SDS011;7329;50.866;4.366;2022-08-19T03:05:39;7.05;;;6.55;;
14486;SDS011;7329;50.866;4.366;2022-08-19T03:07:42;7.22;;;6.53;;
14486;SDS011;7329;50.866;4.366;2022-08-19T03:09:44;7.22;;;6.63;;
14486;SDS011;7329;50.866;4.366;2022-08-19T03:11:46;7.38;;;6.78;;
14486;SDS011;7329;50.866;4.366;2022-08-19T03:13:49;6.90;;;6.38;;
14486;SDS011;7329;50.866;4.366;2022-08-19T03:15:52;7.45;;;6.85;;
14486;SDS011;7329;50.866;4.366;2022-08-19T03:17:55;7.05;;;6.45;;
14486;SDS011;7329;50.866;4.366;2022-08-19T03:19:57;6.90;;;6.25;;
14486;SDS011;7329;50.866;4.366;2022-08-19T03:22:00;6.75;;;6.25;;
14486;SDS011;7329;50.866;4.366;2022-08-19T03:24:04;7.03;;;6.53;;
14486;SDS011;7329;50.866;4.366;2022-08-19T03:26:08;7.10;;;6.50;;
14486;SDS011;7329;50.866;4.366;2022-08-19T03:28:10;7.15;;;6.57;;
14486;SDS011;7329;50.866;4.366;2022-08-19T03:30:15;6.85;;;6.35;;
14486;SDS011;7329;50.866;4.366;2022-08-19T03:32:17;7.00;;;6.35;;
14486;SDS011;7329;50.866;4.366;2022-08-19T03:34:22;7.05;;;6.50;;
14486;SDS011;7329;50.866;4.366;2022-08-19T03:36:26;6.90;;;6.30;;
14486;SDS011;7329;50.866;4.366;2022-08-19T03:38:29;7.85;;;7.15;;
14486;SDS011;7329;50.866;4.366;2022-08-19T03:40:32;6.65;;;6.15;;
14486;SDS011;7329;50.866;4.366;2022-08-19T03:42:38;7.13;;;6.53;;
14486;SDS011;7329;50.866;4.366;2022-08-19T03:44:42;7.13;;;6.55;;
14486;SDS011;7329;50.866;4.366;2022-08-19T03:46:45;7.00;;;6.40;;
14486;SDS011;7329;50.866;4.366;2022-08-19T03:48:50;6.88;;;6.28;;
14486;SDS011;7329;50.866;4.366;2022-08-19T03:50:55;7.53;;;6.82;;
14486;SDS011;7329;50.866;4.366;2022-08-19T03:52:59;6.90;;;6.30;;
14486;SDS011;7329;50.866;4.366;2022-08-19T03:55:01;7.20;;;6.60;;
14486;SDS011;7329;50.866;4.366;2022-08-19T03:57:04;6.97;;;6.38;;
14486;SDS011;7329;50.866;4.366;2022-08-19T03:59:09;7.00;;;6.47;;
14486;SDS011;7329;50.866;4.366;2022-08-19T04:01:14;6.50;;;6.00;;
14486;SDS011;7329;50.866;4.366;2022-08-19T04:03:18;6.70;;;6.20;;
14486;SDS011;7329;50.866;4.366;2022-08-19T04:05:20;6.85;;;6.35;;
14486;SDS011;7329;50.866;4.366;2022-08-19T04:07:24;7.28;;;6.53;;
14486;SDS011;7329;50.866;4.366;2022-08-19T04:09:26;7.28;;;6.68;;
14486;SDS011;7329;50.866;4.366;2022-08-19T04:11:29;7.22;;;6.47;;
14486;SDS011;7329;50.866;4.366;2022-08-19T04:13:35;6.75;;;6.25;;
14486;SDS011;7329;50.866;4.366;2022-08-19T04:15:38;7.22;;;6.68;;
14486;SDS011;7329;50.866;4.366;2022-08-19T04:17:41;7.20;;;6.35;;
14486;SDS011;7329;50.866;4.366;2022-08-19T04:19:44;6.95;;;6.35;;
14486;SDS011;7329;50.866;4.366;2022-08-19T04:21:47;6.80;;;6.30;;
14486;SDS011;7329;50.866;4.366;2022-08-19T04:23:53;6.88;;;6.32;;
14486;SDS011;7329;50.866;4.366;2022-08-19T04:25:57;6.88;;;6.32;;
14486;SDS011;7329;50.866;4.366;2022-08-19T04:27:59;6.78;;;6.18;;
14486;SDS011;7329;50.866;4.366;2022-08-19T04:30:02;6.60;;;6.00;;
14486;SDS011;7329;50.866;4.366;2022-08-19T04:32:05;6.53;;;6.03;;
14486;SDS011;7329;50.866;4.366;2022-08-19T04:34:20;7.00;;;6.40;;
14486;SDS011;7329;50.866;4.366;2022-08-19T04:36:26;6.55;;;5.97;;
14486;SDS011;7329;50.866;4.366;2022-08-19T04:38:30;6.45;;;5.95;;
14486;SDS011;7329;50.866;4.366;2022-08-19T04:40:33;6.40;;;5.88;;
14486;SDS011;7329;50.866;4.366;2022-08-19T04:42:58;6.60;;;6.10;;
14486;SDS011;7329;50.866;4.366;2022-08-19T04:45:01;6.65;;;6.03;;
14486;SDS011;7329;50.866;4.366;2022-08-19T04:47:04;7.05;;;6.45;;
14486;SDS011;7329;50.866;4.366;2022-08-19T04:49:07;7.05;;;6.45;;
14486;SDS011;7329;50.866;4.366;2022-08-19T04:51:10;6.57;;;6.07;;
14486;SDS011;7329;50.866;4.366;2022-08-19T04:53:14;6.65;;;6.15;;
14486;SDS011;7329;50.866;4.366;2022-08-19T04:55:16;7.03;;;6.43;;
14486;SDS011;7329;50.866;4.366;2022-08-19T04:57:20;7.03;;;6.43;;
14486;SDS011;7329;50.866;4.366;2022-08-19T04:59:23;6.53;;;5.93;;
14486;SDS011;7329;50.866;4.366;2022-08-19T05:01:26;7.28;;;6.57;;
14486;SDS011;7329;50.866;4.366;2022-08-19T05:03:30;7.07;;;6.47;;
14486;SDS011;7329;50.866;4.366;2022-08-19T05:05:37;6.88;;;6.28;;
14486;SDS011;7329;50.866;4.366;2022-08-19T05:07:40;6.68;;;6.07;;
14486;SDS011;7329;50.866;4.366;2022-08-19T05:09:43;6.43;;;5.85;;
14486;SDS011;7329;50.866;4.366;2022-08-19T05:11:45;7.15;;;6.43;;
14486;SDS011;7329;50.866;4.366;2022-08-19T05:13:49;7.13;;;6.53;;
14486;SDS011;7329;50.866;4.366;2022-08-19T05:15:55;6.45;;;5.95;;
14486;SDS011;7329;50.866;4.366;2022-08-19T05:17:58;6.63;;;6.03;;
14486;SDS011;7329;50.866;4.366;2022-08-19T05:20:18;6.53;;;6.03;;
14486;SDS011;7329;50.866;4.366;2022-08-19T05:22:44;6.45;;;5.95;;
14486;SDS011;7329;50.866;4.366;2022-08-19T05:24:48;6.65;;;5.93;;
14486;SDS011;7329;50.866;4.366;2022-08-19T05:26:50;6.43;;;5.75;;
14486;SDS011;7329;50.866;4.366;2022-08-19T05:28:58;6.57;;;5.97;;
14486;SDS011;7329;50.866;4.366;2022-08-19T05:31:00;6.25;;;5.75;;
14486;SDS011;7329;50.866;4.366;2022-08-19T05:33:02;6.28;;;5.78;;
14486;SDS011;7329;50.866;4.366;2022-08-19T05:35:05;6.60;;;6.07;;
14486;SDS011;7329;50.866;4.366;2022-08-19T05:37:08;6.43;;;5.93;;
14486;SDS011;7329;50.866;4.366;2022-08-19T05:39:12;6.60;;;6.00;;
14486;SDS011;7329;50.866;4.366;2022-08-19T05:41:16;6.97;;;5.78;;
14486;SDS011;7329;50.866;4.366;2022-08-19T05:43:19;6.57;;;5.72;;
14486;SDS011;7329;50.866;4.366;2022-08-19T05:45:22;6.47;;;5.95;;
14486;SDS011;7329;50.866;4.366;2022-08-19T05:47:25;6.53;;;5.93;;
14486;SDS011;7329;50.866;4.366;2022-08-19T05:49:28;7.13;;;6.40;;
14486;SDS011;7329;50.866;4.366;2022-08-19T05:51:31;6.30;;;5.70;;
14486;SDS011;7329;50.866;4.366;2022-08-19T05:53:34;6.40;;;5.85;;
14486;SDS011;7329;50.866;4.366;2022-08-19T05:55:37;6.18;;;5.68;;
14486;SDS011;7329;50.866;4.366;2022-08-19T05:57:40;6.50;;;6.00;;
14486;SDS011;7329;50.866;4.366;2022-08-19T05:59:42;6.53;;;6.00;;
14486;SDS011;7329;50.866;4.366;2022-08-19T06:01:53;6.40;;;5.90;;
14486;SDS011;7329;50.866;4.366;2022-08-19T06:03:57;6.55;;;5.55;;
14486;SDS011;7329;50.866;4.366;2022-08-19T06:06:00;6.65;;;6.05;;
14486;SDS011;7329;50.866;4.366;2022-08-19T06:08:03;5.78;;;5.07;;
14486;SDS011;7329;50.866;4.366;2022-08-19T06:10:06;6.18;;;5.68;;
14486;SDS011;7329;50.866;4.366;2022-08-19T06:12:11;6.50;;;6.00;;
14486;SDS011;7329;50.866;4.366;2022-08-19T06:14:15;7.07;;;5.90;;
14486;SDS011;7329;50.866;4.366;2022-08-19T06:16:21;6.45;;;5.43;;
14486;SDS011;7329;50.866;4.366;2022-08-19T06:18:25;6.60;;;6.00;;
14486;SDS011;7329;50.866;4.366;2022-08-19T06:20:28;6.25;;;5.75;;
14486;SDS011;7329;50.866;4.366;2022-08-19T06:22:36;6.50;;;5.88;;
14486;SDS011;7329;50.866;4.366;2022-08-19T06:24:39;6.20;;;5.70;;
14486;SDS011;7329;50.866;4.366;2022-08-19T06:26:42;6.55;;;5.72;;
14486;SDS011;7329;50.866;4.366;2022-08-19T06:28:46;6.30;;;5.78;;
14486;SDS011;7329;50.866;4.366;2022-08-19T06:30:49;5.90;;;5.40;;
14486;SDS011;7329;50.866;4.366;2022-08-19T06:32:51;6.25;;;5.68;;
14486;SDS011;7329;50.866;4.366;2022-08-19T06:34:55;5.88;;;5.38;;
14486;SDS011;7329;50.866;4.366;2022-08-19T06:36:58;6.60;;;5.30;;
14486;SDS011;7329;50.866;4.366;2022-08-19T06:39:03;6.50;;;5.95;;
14486;SDS011;7329;50.866;4.366;2022-08-19T06:41:07;7.38;;;5.90;;
14486;SDS011;7329;50.866;4.366;2022-08-19T06:43:10;9.50;;;6.28;;
14486;SDS011;7329;50.866;4.366;2022-08-19T06:45:12;13.23;;;7.07;;
14486;SDS011;7329;50.866;4.366;2022-08-19T06:47:16;13.25;;;9.05;;
14486;SDS011;7329;50.866;4.366;2022-08-19T06:49:19;13.85;;;9.52;;
14486;SDS011;7329;50.866;4.366;2022-08-19T06:51:23;16.58;;;9.43;;
14486;SDS011;7329;50.866;4.366;2022-08-19T06:53:26;15.95;;;8.98;;
14486;SDS011;7329;50.866;4.366;2022-08-19T06:55:29;14.00;;;9.05;;
14486;SDS011;7329;50.866;4.366;2022-08-19T06:57:32;15.18;;;9.15;;
14486;SDS011;7329;50.866;4.366;2022-08-19T06:59:35;16.67;;;9.25;;
14486;SDS011;7329;50.866;4.366;2022-08-19T07:01:40;16.77;;;9.85;;
14486;SDS011;7329;50.866;4.366;2022-08-19T07:03:47;14.55;;;8.65;;
14486;SDS011;7329;50.866;4.366;2022-08-19T07:05:50;16.85;;;9.63;;
14486;SDS011;7329;50.866;4.366;2022-08-19T07:07:53;15.57;;;9.35;;
14486;SDS011;7329;50.866;4.366;2022-08-19T07:09:56;17.98;;;9.30;;
14486;SDS011;7329;50.866;4.366;2022-08-19T07:11:59;17.27;;;9.13;;
14486;SDS011;7329;50.866;4.366;2022-08-19T07:14:02;15.25;;;8.88;;
14486;SDS011;7329;50.866;4.366;2022-08-19T07:16:07;12.80;;;9.00;;
14486;SDS011;7329;50.866;4.366;2022-08-19T07:18:10;15.73;;;9.35;;
14486;SDS011;7329;50.866;4.366;2022-08-19T07:20:12;14.48;;;9.15;;
14486;SDS011;7329;50.866;4.366;2022-08-19T07:22:15;12.75;;;8.43;;
14486;SDS011;7329;50.866;4.366;2022-08-19T07:24:19;12.77;;;8.82;;
14486;SDS011;7329;50.866;4.366;2022-08-19T07:26:24;13.75;;;8.98;;
14486;SDS011;7329;50.866;4.366;2022-08-19T07:28:29;15.15;;;9.10;;
14486;SDS011;7329;50.866;4.366;2022-08-19T07:30:31;12.35;;;7.78;;
14486;SDS011;7329;50.866;4.366;2022-08-19T07:32:33;13.57;;;8.68;;
14486;SDS011;7329;50.866;4.366;2022-08-19T07:34:35;11.90;;;8.07;;
14486;SDS011;7329;50.866;4.366;2022-08-19T07:36:38;10.63;;;7.00;;
14486;SDS011;7329;50.866;4.366;2022-08-19T07:38:43;11.15;;;7.45;;
14486;SDS011;7329;50.866;4.366;2022-08-19T07:40:49;12.75;;;7.35;;
14486;SDS011;7329;50.866;4.366;2022-08-19T07:42:52;10.43;;;6.70;;
14486;SDS011;7329;50.866;4.366;2022-08-19T07:44:54;12.25;;;7.13;;
14486;SDS011;7329;50.866;4.366;2022-08-19T07:46:56;12.00;;;6.57;;
14486;SDS011;7329;50.866;4.366;2022-08-19T07:49:00;12.93;;;6.78;;
14486;SDS011;7329;50.866;4.366;2022-08-19T07:51:04;12.75;;;7.25;;
14486;SDS011;7329;50.866;4.366;2022-08-19T07:53:08;13.48;;;6.78;;
14486;SDS011;7329;50.866;4.366;2022-08-19T07:55:12;8.05;;;6.35;;
14486;SDS011;7329;50.866;4.366;2022-08-19T07:57:17;12.82;;;7.25;;
14486;SDS011;7329;50.866;4.366;2022-08-19T07:59:20;15.85;;;6.85;;
14486;SDS011;7329;50.866;4.366;2022-08-19T08:01:24;13.93;;;6.75;;
14486;SDS011;7329;50.866;4.366;2022-08-19T08:03:29;14.68;;;7.18;;
14486;SDS011;7329;50.866;4.366;2022-08-19T08:05:49;13.02;;;7.85;;
14486;SDS011;7329;50.866;4.366;2022-08-19T08:08:08;10.55;;;7.47;;
14486;SDS011;7329;50.866;4.366;2022-08-19T08:10:36;14.77;;;7.25;;
14486;SDS011;7329;50.866;4.366;2022-08-19T08:12:40;14.15;;;6.88;;
14486;SDS011;7329;50.866;4.366;2022-08-19T08:14:43;14.50;;;7.10;;
14486;SDS011;7329;50.866;4.366;2022-08-19T08:16:48;13.57;;;7.53;;
14486;SDS011;7329;50.866;4.366;2022-08-19T08:18:51;10.40;;;6.25;;
14486;SDS011;7329;50.866;4.366;2022-08-19T08:20:53;9.32;;;6.45;;
14486;SDS011;7329;50.866;4.366;2022-08-19T08:22:56;11.02;;;6.80;;
14486;SDS011;7329;50.866;4.366;2022-08-19T08:25:17;11.10;;;6.70;;
14486;SDS011;7329;50.866;4.366;2022-08-19T08:27:21;9.45;;;6.88;;
14486;SDS011;7329;50.866;4.366;2022-08-19T08:29:24;9.82;;;6.50;;
14486;SDS011;7329;50.866;4.366;2022-08-19T08:31:27;9.85;;;6.30;;
14486;SDS011;7329;50.866;4.366;2022-08-19T08:33:29;8.90;;;6.00;;
14486;SDS011;7329;50.866;4.366;2022-08-19T08:35:32;10.63;;;6.28;;
14486;SDS011;7329;50.866;4.366;2022-08-19T08:37:34;11.95;;;6.90;;
14486;SDS011;7329;50.866;4.366;2022-08-19T08:39:37;7.13;;;5.53;;
14486;SDS011;7329;50.866;4.366;2022-08-19T08:41:41;9.40;;;6.20;;
14486;SDS011;7329;50.866;4.366;2022-08-19T08:43:51;7.72;;;5.80;;
14486;SDS011;7329;50.866;4.366;2022-08-19T08:45:59;12.00;;;6.97;;
14486;SDS011;7329;50.866;4.366;2022-08-19T08:48:07;11.43;;;6.40;;
14486;SDS011;7329;50.866;4.366;2022-08-19T08:50:18;11.35;;;6.70;;
14486;SDS011;7329;50.866;4.366;2022-08-19T08:52:24;11.40;;;6.50;;
14486;SDS011;7329;50.866;4.366;2022-08-19T08:54:30;11.13;;;6.82;;
14486;SDS011;7329;50.866;4.366;2022-08-19T08:56:37;10.25;;;6.30;;
14486;SDS011;7329;50.866;4.366;2022-08-19T08:58:44;10.85;;;6.70;;
14486;SDS011;7329;50.866;4.366;2022-08-19T09:00:50;9.10;;;6.07;;
14486;SDS011;7329;50.866;4.366;2022-08-19T09:02:55;10.77;;;6.50;;
14486;SDS011;7329;50.866;4.366;2022-08-19T09:04:58;11.25;;;6.40;;
14486;SDS011;7329;50.866;4.366;2022-08-19T09:07:16;7.65;;;6.13;;
14486;SDS011;7329;50.866;4.366;2022-08-19T09:09:27;10.38;;;5.78;;
14486;SDS011;7329;50.866;4.366;2022-08-19T09:11:40;9.48;;;6.38;;
14486;SDS011;7329;50.866;4.366;2022-08-19T09:13:49;10.27;;;5.97;;
14486;SDS011;7329;50.866;4.366;2022-08-19T09:16:05;9.55;;;6.22;;
14486;SDS011;7329;50.866;4.366;2022-08-19T09:18:12;9.90;;;6.93;;
14486;SDS011;7329;50.866;4.366;2022-08-19T09:20:16;6.90;;;5.65;;
14486;SDS011;7329;50.866;4.366;2022-08-19T09:22:21;8.63;;;5.82;;
14486;SDS011;7329;50.866;4.366;2022-08-19T09:24:23;11.48;;;6.20;;
14486;SDS011;7329;50.866;4.366;2022-08-19T09:26:26;10.70;;;6.20;;
14486;SDS011;7329;50.866;4.366;2022-08-19T09:28:28;8.77;;;5.80;;
14486;SDS011;7329;50.866;4.366;2022-08-19T09:30:32;9.63;;;6.07;;
14486;SDS011;7329;50.866;4.366;2022-08-19T09:32:42;9.40;;;6.15;;
14486;SDS011;7329;50.866;4.366;2022-08-19T09:34:47;6.57;;;5.70;;
14486;SDS011;7329;50.866;4.366;2022-08-19T09:36:49;8.18;;;5.47;;
14486;SDS011;7329;50.866;4.366;2022-08-19T09:38:54;9.50;;;5.82;;
14486;SDS011;7329;50.866;4.366;2022-08-19T09:41:01;8.48;;;5.32;;
14486;SDS011;7329;50.866;4.366;2022-08-19T09:43:04;9.45;;;5.65;;
14486;SDS011;7329;50.866;4.366;2022-08-19T09:45:08;9.30;;;6.15;;
14486;SDS011;7329;50.866;4.366;2022-08-19T09:47:11;8.43;;;5.90;;
14486;SDS011;7329;50.866;4.366;2022-08-19T09:49:14;7.22;;;5.93;;
14486;SDS011;7329;50.866;4.366;2022-08-19T09:51:19;8.55;;;6.10;;
14486;SDS011;7329;50.866;4.366;2022-08-19T09:53:23;7.53;;;5.85;;
14486;SDS011;7329;50.866;4.366;2022-08-19T09:55:25;7.07;;;5.70;;
14486;SDS011;7329;50.866;4.366;2022-08-19T09:57:27;10.15;;;5.70;;
14486;SDS011;7329;50.866;4.366;2022-08-19T09:59:30;7.88;;;5.40;;
14486;SDS011;7329;50.866;4.366;2022-08-19T10:01:35;8.77;;;5.65;;
14486;SDS011;7329;50.866;4.366;2022-08-19T10:03:38;8.30;;;5.10;;
14486;SDS011;7329;50.866;4.366;2022-08-19T10:05:40;7.30;;;4.75;;
14486;SDS011;7329;50.866;4.366;2022-08-19T10:07:50;9.15;;;5.38;;
14486;SDS011;7329;50.866;4.366;2022-08-19T10:09:52;9.80;;;5.82;;
14486;SDS011;7329;50.866;4.366;2022-08-19T10:11:55;7.18;;;5.85;;
14486;SDS011;7329;50.866;4.366;2022-08-19T10:13:57;6.93;;;5.18;;
14486;SDS011;7329;50.866;4.366;2022-08-19T10:16:02;8.13;;;5.65;;
14486;SDS011;7329;50.866;4.366;2022-08-19T10:18:07;7.07;;;4.88;;
14486;SDS011;7329;50.866;4.366;2022-08-19T10:20:10;6.53;;;5.00;;
14486;SDS011;7329;50.866;4.366;2022-08-19T10:22:12;6.95;;;4.78;;
14486;SDS011;7329;50.866;4.366;2022-08-19T10:24:16;6.20;;;4.70;;
14486;SDS011;7329;50.866;4.366;2022-08-19T10:26:21;7.43;;;5.38;;
14486;SDS011;7329;50.866;4.366;2022-08-19T10:28:26;5.00;;;4.50;;
14486;SDS011;7329;50.866;4.366;2022-08-19T10:30:28;7.65;;;5.78;;
14486;SDS011;7329;50.866;4.366;2022-08-19T10:32:30;7.88;;;5.47;;
14486;SDS011;7329;50.866;4.366;2022-08-19T10:34:32;7.13;;;5.43;;
14486;SDS011;7329;50.866;4.366;2022-08-19T10:36:36;7.30;;;5.30;;
14486;SDS011;7329;50.866;4.366;2022-08-19T10:38:39;6.10;;;5.47;;
14486;SDS011;7329;50.866;4.366;2022-08-19T10:40:42;7.85;;;6.00;;
14486;SDS011;7329;50.866;4.366;2022-08-19T10:42:45;7.32;;;5.88;;
14486;SDS011;7329;50.866;4.366;2022-08-19T10:44:47;7.45;;;5.90;;
14486;SDS011;7329;50.866;4.366;2022-08-19T10:46:50;8.73;;;5.97;;
14486;SDS011;7329;50.866;4.366;2022-08-19T10:48:53;9.43;;;6.68;;
14486;SDS011;7329;50.866;4.366;2022-08-19T10:50:56;9.82;;;6.82;;
14486;SDS011;7329;50.866;4.366;2022-08-19T10:53:16;8.98;;;6.95;;
14486;SDS011;7329;50.866;4.366;2022-08-19T10:55:21;9.23;;;6.10;;
14486;SDS011;7329;50.866;4.366;2022-08-19T10:57:42;11.00;;;6.32;;
14486;SDS011;7329;50.866;4.366;2022-08-19T10:59:45;7.53;;;6.15;;
14486;SDS011;7329;50.866;4.366;2022-08-19T11:01:48;8.02;;;5.63;;
14486;SDS011;7329;50.866;4.366;2022-08-19T11:03:52;8.52;;;6.15;;
14486;SDS011;7329;50.866;4.366;2022-08-19T11:05:57;10.15;;;6.82;;
14486;SDS011;7329;50.866;4.366;2022-08-19T11:08:00;7.68;;;6.30;;
14486;SDS011;7329;50.866;4.366;2022-08-19T11:10:03;6.90;;;6.20;;
14486;SDS011;7329;50.866;4.366;2022-08-19T11:12:06;9.60;;;6.65;;
14486;SDS011;7329;50.866;4.366;2022-08-19T11:14:12;9.15;;;7.07;;
14486;SDS011;7329;50.866;4.366;2022-08-19T11:16:21;9.50;;;7.40;;
14486;SDS011;7329;50.866;4.366;2022-08-19T11:18:26;8.75;;;6.72;;
14486;SDS011;7329;50.866;4.366;2022-08-19T11:20:28;7.45;;;5.70;;
14486;SDS011;7329;50.866;4.366;2022-08-19T11:22:31;9.45;;;6.60;;
14486;SDS011;7329;50.866;4.366;2022-08-19T11:24:33;8.65;;;5.70;;
14486;SDS011;7329;50.866;4.366;2022-08-19T11:26:37;8.85;;;6.35;;
14486;SDS011;7329;50.866;4.366;2022-08-19T11:28:40;8.25;;;6.45;;
14486;SDS011;7329;50.866;4.366;2022-08-19T11:30:45;6.93;;;5.75;;
14486;SDS011;7329;50.866;4.366;2022-08-19T11:32:47;9.23;;;5.80;;
14486;SDS011;7329;50.866;4.366;2022-08-19T11:34:49;5.18;;;4.68;;
14486;SDS011;7329;50.866;4.366;2022-08-19T11:36:52;10.65;;;6.70;;
14486;SDS011;7329;50.866;4.366;2022-08-19T11:38:55;9.07;;;7.95;;
14486;SDS011;7329;50.866;4.366;2022-08-19T11:40:57;13.07;;;9.38;;
14486;SDS011;7329;50.866;4.366;2022-08-19T11:43:01;16.73;;;8.80;;
14486;SDS011;7329;50.866;4.366;2022-08-19T11:45:04;13.27;;;10.13;;
14486;SDS011;7329;50.866;4.366;2022-08-19T11:47:08;12.43;;;9.55;;
14486;SDS011;7329;50.866;4.366;2022-08-19T11:49:10;10.43;;;8.82;;
14486;SDS011;7329;50.866;4.366;2022-08-19T11:51:14;10.93;;;9.32;;
14486;SDS011;7329;50.866;4.366;2022-08-19T11:53:20;12.43;;;9.77;;
14486;SDS011;7329;50.866;4.366;2022-08-19T11:55:23;10.30;;;9.20;;
14486;SDS011;7329;50.866;4.366;2022-08-19T11:57:25;14.07;;;8.70;;
14486;SDS011;7329;50.866;4.366;2022-08-19T11:59:27;10.30;;;8.68;;
14486;SDS011;7329;50.866;4.366;2022-08-19T12:01:29;12.32;;;8.98;;
14486;SDS011;7329;50.866;4.366;2022-08-19T12:03:34;10.00;;;8.60;;
14486;SDS011;7329;50.866;4.366;2022-08-19T12:05:37;11.90;;;8.80;;
14486;SDS011;7329;50.866;4.366;2022-08-19T12:07:40;12.45;;;9.10;;
14486;SDS011;7329;50.866;4.366;2022-08-19T12:09:44;10.68;;;8.60;;
14486;SDS011;7329;50.866;4.366;2022-08-19T12:11:46;9.93;;;9.00;;
14486;SDS011;7329;50.866;4.366;2022-08-19T12:13:48;10.93;;;7.78;;
14486;SDS011;7329;50.866;4.366;2022-08-19T12:15:51;9.50;;;7.22;;
14486;SDS011;7329;50.866;4.366;2022-08-19T12:17:53;10.18;;;7.47;;
14486;SDS011;7329;50.866;4.366;2022-08-19T12:19:58;8.38;;;7.03;;
14486;SDS011;7329;50.866;4.366;2022-08-19T12:22:00;9.10;;;6.50;;
14486;SDS011;7329;50.866;4.366;2022-08-19T12:24:04;10.32;;;7.32;;
14486;SDS011;7329;50.866;4.366;2022-08-19T12:26:08;9.32;;;6.65;;
14486;SDS011;7329;50.866;4.366;2022-08-19T12:28:11;7.32;;;6.47;;
14486;SDS011;7329;50.866;4.366;2022-08-19T12:30:14;7.30;;;5.75;;
14486;SDS011;7329;50.866;4.366;2022-08-19T12:32:16;10.45;;;6.05;;
14486;SDS011;7329;50.866;4.366;2022-08-19T12:34:18;6.82;;;5.45;;
14486;SDS011;7329;50.866;4.366;2022-08-19T12:36:22;8.00;;;5.60;;